Time;durP1;ratioP1;P1;durP2;ratioP2;P2;SDS_P1;SDS_P2;PMS_P1;PMS_P2;Temp;Humidity;BMP_temperature;BMP_pressure;BME280_temperature;BME280_humidity;BME280_pressure;Samples;Min_cycle;Max_cycle;Signal;HPM_P1;HPM_P2
2024/02/06 00:01:14;;;;;;;0.30;0.20;;;9.80;99.90;;;;;;5088118;28;20172;-75
2024/02/06 00:03:40;;;;;;;0.70;0.70;;;9.80;99.90;;;;;;5088563;28;20490;-80
2024/02/06 00:06:06;;;;;;;0.30;0.20;;;9.80;99.90;;;;;;5088101;28;20614;-80
2024/02/06 00:08:32;;;;;;;0.30;0.30;;;9.80;99.90;;;;;;5086970;28;20912;-80
2024/02/06 00:10:57;;;;;;;0.30;0.20;;;9.70;99.90;;;;;;5088219;28;20692;-74
2024/02/06 00:13:23;;;;;;;1.37;1.37;;;9.70;99.90;;;;;;5088147;28;20207;-80
2024/02/06 00:15:48;;;;;;;0.30;0.20;;;9.70;99.90;;;;;;5087977;28;20235;-81
2024/02/06 00:18:14;;;;;;;3.17;2.90;;;9.60;99.90;;;;;;5086713;28;21010;-81
2024/02/06 00:20:40;;;;;;;0.30;0.20;;;9.60;99.90;;;;;;5087640;28;20501;-74
2024/02/06 00:23:05;;;;;;;3.70;3.40;;;9.50;99.90;;;;;;5087655;28;20192;-73
2024/02/06 00:25:31;;;;;;;0.30;0.20;;;9.50;99.90;;;;;;5087603;28;20813;-74
2024/02/06 00:27:56;;;;;;;0.30;0.20;;;9.50;99.90;;;;;;5088593;28;20204;-74
2024/02/06 00:30:22;;;;;;;0.37;0.20;;;9.50;99.90;;;;;;5086017;28;20177;-80
2024/02/06 00:32:48;;;;;;;0.30;0.20;;;9.50;99.90;;;;;;5087345;28;20694;-80
2024/02/06 00:35:14;;;;;;;19.07;2.17;;;9.50;99.90;;;;;;5087476;28;20874;-74
2024/02/06 00:37:39;;;;;;;0.30;0.30;;;9.40;99.90;;;;;;5087982;28;20196;-80
2024/02/06 00:40:06;;;;;;;0.30;0.20;;;9.30;99.90;;;;;;5087468;28;20531;-76
2024/02/06 00:42:32;;;;;;;0.30;0.20;;;9.30;99.90;;;;;;5086238;28;20316;-74
2024/02/06 00:44:57;;;;;;;1.30;1.20;;;9.40;99.90;;;;;;5087483;28;20336;-75
2024/02/06 00:47:23;;;;;;;0.30;0.30;;;9.40;99.90;;;;;;5087934;28;20169;-74
2024/02/06 00:49:49;;;;;;;1.08;1.08;;;9.50;99.90;;;;;;5085961;28;20634;-75
2024/02/06 00:52:15;;;;;;;0.93;0.93;;;9.50;99.90;;;;;;5085935;28;20333;-80
2024/02/06 00:54:40;;;;;;;0.67;0.63;;;9.50;99.90;;;;;;5085881;28;20211;-74
2024/02/06 00:57:06;;;;;;;0.30;0.20;;;9.40;99.90;;;;;;5084996;28;20665;-80
2024/02/06 00:59:32;;;;;;;0.30;0.20;;;9.40;99.90;;;;;;5086936;28;20496;-77
2024/02/06 01:02:00;;;;;;;0.30;0.20;;;9.50;99.90;;;;;;5087682;28;20180;-74
2024/02/06 01:04:26;;;;;;;0.30;0.20;;;9.50;99.90;;;;;;5085950;28;20200;-80
2024/02/06 01:06:51;;;;;;;0.30;0.20;;;9.50;99.90;;;;;;5085824;28;20227;-74
2024/02/06 01:09:18;;;;;;;0.30;0.20;;;9.50;99.90;;;;;;5087211;28;20212;-73
2024/02/06 01:11:44;;;;;;;0.30;0.20;;;9.50;99.90;;;;;;5086540;28;20224;-81
2024/02/06 01:14:10;;;;;;;0.30;0.20;;;9.40;99.90;;;;;;5085789;28;20227;-74
2024/02/06 01:16:35;;;;;;;0.60;0.60;;;9.40;99.90;;;;;;5086772;28;20180;-74
2024/02/06 01:19:01;;;;;;;0.40;0.40;;;9.40;99.90;;;;;;5085791;28;20219;-74
2024/02/06 01:21:27;;;;;;;0.30;0.20;;;9.30;99.90;;;;;;5084985;28;20190;-81
2024/02/06 01:23:52;;;;;;;0.30;0.20;;;9.30;99.90;;;;;;5087020;28;20267;-74
2024/02/06 01:26:18;;;;;;;0.30;0.20;;;9.20;99.90;;;;;;5086473;28;20632;-74
2024/02/06 01:28:45;;;;;;;0.30;0.20;;;9.10;99.90;;;;;;5085484;28;20227;-80
2024/02/06 01:31:13;;;;;;;0.43;0.40;;;9.00;99.90;;;;;;5086629;28;20171;-80
2024/02/06 01:33:39;;;;;;;0.30;0.20;;;8.90;99.90;;;;;;5085404;28;20261;-74
2024/02/06 01:36:05;;;;;;;3.40;1.70;;;8.90;99.90;;;;;;5085083;28;20180;-73
2024/02/06 01:38:30;;;;;;;0.30;0.20;;;8.80;99.90;;;;;;5086959;28;20192;-74
2024/02/06 01:40:56;;;;;;;0.40;0.30;;;8.70;99.90;;;;;;5084935;28;20711;-73
2024/02/06 01:43:22;;;;;;;0.30;0.20;;;8.70;99.90;;;;;;5086508;28;20193;-74
2024/02/06 01:45:52;;;;;;;0.83;0.83;;;8.60;99.90;;;;;;5084415;28;20224;-80
2024/02/06 01:48:18;;;;;;;0.30;0.20;;;8.50;99.90;;;;;;5085264;28;20208;-74
2024/02/06 01:50:45;;;;;;;0.30;0.20;;;8.50;99.90;;;;;;5085772;28;20355;-74
2024/02/06 01:53:11;;;;;;;1.75;1.65;;;8.40;99.90;;;;;;5087118;28;20197;-73
2024/02/06 01:55:37;;;;;;;0.30;0.20;;;8.40;99.90;;;;;;5084465;28;20183;-74
2024/02/06 01:58:03;;;;;;;0.40;0.40;;;8.50;99.90;;;;;;5084043;28;20199;-74
2024/02/06 02:00:29;;;;;;;1.37;1.33;;;8.50;99.90;;;;;;5085743;28;20180;-74
2024/02/06 02:02:56;;;;;;;0.52;0.52;;;8.60;99.90;;;;;;5086188;28;20709;-80
2024/02/06 02:05:22;;;;;;;0.30;0.20;;;8.70;99.90;;;;;;5084642;28;20268;-73
2024/02/06 02:07:48;;;;;;;0.30;0.20;;;8.70;99.90;;;;;;5086464;28;20193;-80
2024/02/06 02:10:14;;;;;;;0.30;0.20;;;8.80;99.90;;;;;;5085577;28;20460;-74
2024/02/06 02:12:40;;;;;;;0.93;0.83;;;8.80;99.90;;;;;;5086049;28;20196;-74
2024/02/06 02:15:06;;;;;;;0.30;0.20;;;8.90;99.90;;;;;;5084655;28;20617;-80
2024/02/06 02:17:32;;;;;;;1.00;1.00;;;8.90;99.90;;;;;;5084462;28;20176;-80
2024/02/06 02:19:58;;;;;;;0.30;0.20;;;8.90;99.90;;;;;;5084266;28;20815;-79
2024/02/06 02:22:23;;;;;;;1.73;1.63;;;8.90;99.90;;;;;;5084055;28;20172;-73
2024/02/06 02:24:50;;;;;;;1.33;1.23;;;9.00;99.90;;;;;;5085158;28;20634;-74
2024/02/06 02:27:17;;;;;;;0.30;0.20;;;9.00;99.90;;;;;;5086119;28;20530;-74
2024/02/06 02:29:43;;;;;;;0.30;0.20;;;9.00;99.90;;;;;;5085370;28;20176;-74
2024/02/06 02:32:10;;;;;;;0.30;0.20;;;9.10;99.90;;;;;;5085693;28;20242;-74
2024/02/06 02:34:36;;;;;;;0.38;0.35;;;9.10;99.90;;;;;;5085225;28;20265;-74
2024/02/06 02:37:02;;;;;;;0.80;0.77;;;9.10;99.90;;;;;;5084224;28;20176;-73
2024/02/06 02:39:28;;;;;;;0.30;0.20;;;9.10;99.90;;;;;;5085650;28;20425;-73
2024/02/06 02:41:53;;;;;;;0.30;0.20;;;9.10;99.90;;;;;;5085894;28;20175;-80
2024/02/06 02:44:20;;;;;;;0.30;0.30;;;9.00;99.90;;;;;;5084370;28;20898;-74
2024/02/06 02:46:45;;;;;;;0.30;0.20;;;9.00;99.90;;;;;;5083785;28;20227;-80
2024/02/06 02:49:12;;;;;;;0.30;0.20;;;9.00;99.90;;;;;;5084186;28;20204;-73
2024/02/06 02:51:38;;;;;;;0.30;0.20;;;9.00;99.90;;;;;;5085237;28;20173;-74
2024/02/06 02:54:04;;;;;;;0.30;0.20;;;9.00;99.90;;;;;;5085441;28;20351;-80
2024/02/06 02:56:31;;;;;;;0.30;0.20;;;9.00;99.90;;;;;;5084284;28;20179;-74
2024/02/06 02:58:57;;;;;;;0.30;0.20;;;9.00;99.90;;;;;;5089731;28;20519;-80
2024/02/06 03:01:22;;;;;;;0.30;0.20;;;9.00;99.90;;;;;;5088792;28;20768;-73
2024/02/06 03:03:48;;;;;;;0.30;0.20;;;9.10;99.90;;;;;;5089296;28;20207;-73
2024/02/06 03:06:18;;;;;;;0.30;0.20;;;9.10;99.90;;;;;;5089500;28;20691;-74
2024/02/06 03:08:44;;;;;;;0.30;0.20;;;9.20;99.90;;;;;;5088247;28;20227;-73
2024/02/06 03:11:10;;;;;;;0.40;0.30;;;9.20;99.90;;;;;;5089304;28;20220;-74
2024/02/06 03:13:41;;;;;;;0.50;0.50;;;9.20;99.90;;;;;;5089280;28;20192;-80
2024/02/06 03:16:07;;;;;;;0.30;0.20;;;9.20;99.90;;;;;;5089261;28;20263;-80
2024/02/06 03:18:32;;;;;;;0.30;0.20;;;9.20;99.90;;;;;;5087964;28;20242;-80
2024/02/06 03:20:58;;;;;;;0.30;0.20;;;9.20;99.90;;;;;;5087795;28;20589;-74
2024/02/06 03:23:24;;;;;;;0.30;0.20;;;9.30;99.90;;;;;;5088924;28;20196;-80
2024/02/06 03:25:50;;;;;;;0.38;0.28;;;9.30;99.90;;;;;;5087344;28;20216;-80
2024/02/06 03:28:17;;;;;;;0.30;0.20;;;9.30;99.90;;;;;;5087960;28;20551;-79
2024/02/06 03:30:46;;;;;;;0.30;0.20;;;9.30;99.90;;;;;;5088824;28;20673;-73
2024/02/06 03:33:11;;;;;;;0.30;0.20;;;9.40;99.90;;;;;;5089193;28;20554;-78
2024/02/06 03:35:38;;;;;;;0.30;0.20;;;9.40;99.90;;;;;;5088508;28;20177;-74
2024/02/06 03:38:04;;;;;;;0.30;0.20;;;9.50;99.90;;;;;;5088923;28;20436;-80
2024/02/06 03:40:32;;;;;;;0.30;0.30;;;9.50;99.90;;;;;;5087291;28;20591;-80
2024/02/06 03:42:58;;;;;;;0.30;0.20;;;9.50;99.90;;;;;;5087689;28;20201;-80
2024/02/06 03:45:23;;;;;;;0.30;0.20;;;9.50;99.90;;;;;;5088431;28;20215;-74
2024/02/06 03:47:49;;;;;;;0.30;0.20;;;9.50;99.90;;;;;;5088886;28;20437;-80
2024/02/06 03:50:15;;;;;;;0.30;0.30;;;9.50;99.90;;;;;;5086805;28;20188;-80
2024/02/06 03:52:40;;;;;;;0.30;0.27;;;9.50;99.90;;;;;;5088613;28;20215;-80
2024/02/06 03:55:06;;;;;;;0.30;0.20;;;9.50;99.90;;;;;;5088609;28;20367;-79
2024/02/06 03:57:33;;;;;;;0.30;0.30;;;9.50;99.90;;;;;;5088774;28;20573;-74
2024/02/06 03:59:58;;;;;;;0.30;0.20;;;9.60;99.90;;;;;;5087301;28;20168;-74
2024/02/06 04:02:25;;;;;;;0.30;0.20;;;9.60;99.90;;;;;;5088654;28;20188;-80
2024/02/06 04:04:50;;;;;;;0.30;0.20;;;9.70;99.90;;;;;;5086723;28;20183;-74
2024/02/06 04:07:17;;;;;;;0.30;0.20;;;9.70;99.90;;;;;;5088092;28;20645;-73
2024/02/06 04:09:43;;;;;;;0.40;0.40;;;9.70;99.90;;;;;;5086677;28;20379;-80
2024/02/06 04:12:08;;;;;;;0.30;0.20;;;9.80;99.90;;;;;;5088372;28;20211;-74
2024/02/06 04:14:34;;;;;;;0.30;0.20;;;9.80;99.90;;;;;;5087851;28;20440;-80
2024/02/06 04:17:00;;;;;;;0.30;0.20;;;9.80;99.90;;;;;;5088464;28;20654;-81
2024/02/06 04:19:25;;;;;;;0.30;0.20;;;9.80;99.90;;;;;;5088080;28;20564;-74
2024/02/06 04:21:51;;;;;;;0.30;0.20;;;9.90;99.90;;;;;;5086749;28;20633;-74
2024/02/06 04:24:17;;;;;;;0.30;0.20;;;9.90;99.90;;;;;;5086126;28;20239;-74
2024/02/06 04:26:43;;;;;;;0.30;0.20;;;10.00;99.90;;;;;;5087673;28;20468;-74
2024/02/06 04:29:09;;;;;;;0.30;0.20;;;10.00;99.90;;;;;;5087767;28;20657;-80
2024/02/06 04:31:35;;;;;;;1.15;1.15;;;10.00;99.90;;;;;;5087809;28;20214;-74
2024/02/06 04:34:01;;;;;;;0.30;0.20;;;10.10;99.90;;;;;;5087996;28;20692;-73
2024/02/06 04:36:26;;;;;;;0.30;0.20;;;10.00;99.90;;;;;;5086435;28;20176;-80
2024/02/06 04:38:52;;;;;;;0.30;0.20;;;10.00;99.90;;;;;;5086604;28;20193;-73
2024/02/06 04:41:17;;;;;;;1.07;1.07;;;10.00;99.90;;;;;;5087561;28;20187;-80
2024/02/06 04:43:43;;;;;;;0.30;0.20;;;10.00;99.90;;;;;;5086084;28;20243;-74
2024/02/06 04:46:09;;;;;;;1.40;1.30;;;9.90;99.90;;;;;;5087227;28;20709;-74
2024/02/06 04:48:34;;;;;;;1.90;1.80;;;9.90;99.90;;;;;;5087570;28;20193;-80
2024/02/06 04:51:00;;;;;;;0.30;0.20;;;9.80;99.90;;;;;;5087130;28;20175;-79
2024/02/06 04:53:26;;;;;;;0.30;0.30;;;9.80;99.90;;;;;;5085510;28;20242;-74
2024/02/06 04:55:52;;;;;;;0.30;0.30;;;9.80;99.90;;;;;;5086999;28;20221;-80
2024/02/06 04:58:18;;;;;;;0.30;0.20;;;9.70;99.90;;;;;;5085875;28;20821;-74
2024/02/06 05:00:44;;;;;;;0.30;0.20;;;9.70;99.90;;;;;;5086597;28;20183;-73
2024/02/06 05:03:10;;;;;;;0.37;0.30;;;9.80;99.90;;;;;;5086997;28;20341;-80
2024/02/06 05:05:35;;;;;;;0.30;0.20;;;9.70;99.90;;;;;;5085602;28;20236;-73
2024/02/06 05:08:01;;;;;;;0.30;0.20;;;9.80;99.90;;;;;;5087030;28;20294;-73
2024/02/06 05:10:27;;;;;;;1.17;1.10;;;9.80;99.90;;;;;;5086594;28;20307;-80
2024/02/06 05:12:54;;;;;;;0.30;0.30;;;9.80;99.90;;;;;;5086198;28;20546;-74
2024/02/06 05:15:20;;;;;;;2.40;2.30;;;9.90;99.90;;;;;;5085428;28;20177;-80
2024/02/06 05:17:46;;;;;;;0.30;0.20;;;9.90;99.90;;;;;;5086529;28;20201;-80
2024/02/06 05:20:12;;;;;;;0.30;0.20;;;9.90;99.90;;;;;;5087275;28;20662;-74
2024/02/06 05:22:38;;;;;;;2.95;2.75;;;9.90;99.90;;;;;;5102828;28;20459;-80
2024/02/06 05:25:08;;;;;;;0.40;0.30;;;9.80;99.90;;;;;;5105182;28;20311;-74
2024/02/06 05:27:34;;;;;;;5.28;2.33;;;9.80;99.90;;;;;;5091893;28;20271;-74
2024/02/06 05:30:04;;;;;;;1.27;0.73;;;9.80;99.90;;;;;;5105012;28;20607;-76
2024/02/06 05:32:31;;;;;;;0.30;0.20;;;9.70;99.90;;;;;;5104548;28;20611;-74
2024/02/06 05:34:59;;;;;;;4.53;3.85;;;9.70;99.90;;;;;;5104430;28;20262;-74
2024/02/06 05:37:25;;;;;;;0.30;0.20;;;9.70;99.90;;;;;;5101656;28;20210;-74
2024/02/06 05:39:51;;;;;;;0.40;0.40;;;9.70;99.90;;;;;;5103071;28;20377;-73
2024/02/06 05:42:16;;;;;;;0.30;0.20;;;9.70;99.90;;;;;;5105045;28;20655;-74
2024/02/06 05:44:42;;;;;;;0.30;0.20;;;9.70;99.90;;;;;;5105151;28;20351;-75
2024/02/06 05:47:09;;;;;;;0.30;0.20;;;9.60;99.90;;;;;;5105203;28;20219;-74
2024/02/06 05:49:35;;;;;;;0.30;0.20;;;9.60;99.90;;;;;;5103125;28;20196;-75
2024/02/06 05:52:00;;;;;;;0.30;0.20;;;9.60;99.90;;;;;;5099899;28;20382;-74
2024/02/06 05:54:26;;;;;;;0.30;0.30;;;9.50;99.90;;;;;;5095525;28;20432;-82
2024/02/06 05:56:51;;;;;;;0.30;0.20;;;9.40;99.90;;;;;;5094902;28;20673;-75
2024/02/06 05:59:17;;;;;;;0.30;0.30;;;9.40;99.90;;;;;;5093963;28;20241;-77
2024/02/06 06:01:43;;;;;;;0.30;0.27;;;9.30;99.90;;;;;;5095564;28;20660;-73
2024/02/06 06:04:09;;;;;;;0.30;0.20;;;9.30;99.90;;;;;;5094897;28;20283;-74
2024/02/06 06:06:35;;;;;;;0.60;0.57;;;9.30;99.90;;;;;;5094241;28;20215;-74
2024/02/06 06:09:01;;;;;;;0.90;0.90;;;9.20;99.90;;;;;;5094292;28;20571;-75
2024/02/06 06:11:26;;;;;;;0.30;0.20;;;9.20;99.90;;;;;;5095078;28;20235;-75
2024/02/06 06:13:52;;;;;;;0.30;0.20;;;9.30;99.90;;;;;;5093131;28;20204;-76
2024/02/06 06:16:17;;;;;;;0.30;0.20;;;9.30;99.90;;;;;;5095947;28;20207;-76
2024/02/06 06:18:43;;;;;;;0.30;0.20;;;9.20;99.90;;;;;;5092194;28;20411;-78
2024/02/06 06:21:09;;;;;;;1.63;1.63;;;9.20;99.90;;;;;;5093206;28;20217;-78
2024/02/06 06:23:34;;;;;;;0.30;0.20;;;9.20;99.90;;;;;;5096711;28;20212;-76
2024/02/06 06:26:00;;;;;;;0.30;0.20;;;9.20;99.90;;;;;;5097633;28;20844;-77
2024/02/06 06:28:26;;;;;;;0.65;0.65;;;9.10;99.90;;;;;;5093016;28;20215;-79
2024/02/06 06:30:52;;;;;;;2.37;2.27;;;9.00;99.90;;;;;;5094267;28;20673;-75
2024/02/06 06:33:18;;;;;;;0.30;0.20;;;9.00;99.90;;;;;;5090867;28;20207;-78
2024/02/06 06:35:44;;;;;;;0.55;0.55;;;9.00;99.90;;;;;;5097658;28;20187;-77
2024/02/06 06:38:09;;;;;;;0.30;0.20;;;9.10;99.90;;;;;;5097206;28;20222;-77
2024/02/06 06:40:35;;;;;;;0.30;0.20;;;9.10;99.90;;;;;;5098023;28;20191;-78
2024/02/06 06:43:01;;;;;;;1.23;1.23;;;9.20;99.90;;;;;;5104218;28;20218;-78
2024/02/06 06:45:27;;;;;;;0.30;0.20;;;9.10;99.90;;;;;;5101470;28;20211;-78
2024/02/06 06:47:53;;;;;;;0.30;0.20;;;9.10;99.90;;;;;;5102641;28;20286;-79
2024/02/06 06:50:19;;;;;;;0.30;0.20;;;9.10;99.90;;;;;;5101182;28;20321;-77
2024/02/06 06:52:44;;;;;;;0.30;0.20;;;9.10;99.90;;;;;;5105954;28;20226;-77
2024/02/06 06:55:10;;;;;;;0.30;0.20;;;9.10;99.90;;;;;;5092328;28;20558;-81
2024/02/06 06:57:42;;;;;;;0.30;0.20;;;9.20;99.90;;;;;;5102732;28;20207;-78
2024/02/06 07:00:13;;;;;;;0.30;0.20;;;9.20;99.90;;;;;;5101321;28;20188;-76
2024/02/06 07:02:39;;;;;;;0.30;0.20;;;9.40;99.90;;;;;;5098285;28;20219;-78
2024/02/06 07:05:11;;;;;;;0.30;0.20;;;9.50;99.90;;;;;;5092777;28;20430;-79
2024/02/06 07:07:37;;;;;;;0.30;0.20;;;9.60;99.90;;;;;;5090348;28;20775;-76
2024/02/06 07:10:04;;;;;;;2.70;2.60;;;9.70;99.90;;;;;;5093894;28;20224;-77
2024/02/06 07:12:30;;;;;;;0.30;0.20;;;9.90;99.90;;;;;;5123255;27;20179;-76
2024/02/06 07:14:56;;;;;;;0.30;0.20;;;10.00;99.90;;;;;;5090948;28;20221;-76
2024/02/06 07:17:22;;;;;;;1.03;1.03;;;10.20;99.90;;;;;;5098604;28;20415;-76
2024/02/06 07:19:47;;;;;;;0.30;0.20;;;10.30;99.90;;;;;;5092888;28;20495;-76
2024/02/06 07:22:13;;;;;;;0.30;0.30;;;10.50;99.90;;;;;;5099706;27;20186;-77
2024/02/06 07:24:39;;;;;;;0.30;0.20;;;10.70;99.90;;;;;;5086115;28;20211;-78
2024/02/06 07:27:06;;;;;;;0.30;0.20;;;10.90;99.90;;;;;;5092390;28;20215;-76
2024/02/06 07:29:31;;;;;;;0.30;0.20;;;11.20;99.90;;;;;;5086005;28;20195;-76
2024/02/06 07:31:57;;;;;;;0.30;0.20;;;11.50;99.90;;;;;;5085732;28;20402;-76
2024/02/06 07:34:22;;;;;;;0.30;0.20;;;11.80;99.90;;;;;;5102466;27;20219;-78
2024/02/06 07:36:48;;;;;;;0.30;0.20;;;12.00;99.90;;;;;;5087477;28;20398;-78
2024/02/06 07:39:14;;;;;;;0.30;0.30;;;12.20;99.90;;;;;;5090439;28;20231;-76
2024/02/06 07:41:43;;;;;;;0.30;0.20;;;12.40;99.90;;;;;;5099650;28;20189;-78
2024/02/06 07:44:09;;;;;;;0.30;0.20;;;12.60;99.90;;;;;;5091433;28;20983;-76
2024/02/06 07:46:34;;;;;;;0.77;0.73;;;12.70;99.90;;;;;;5099130;28;20471;-77
2024/02/06 07:49:00;;;;;;;0.30;0.20;;;12.90;99.90;;;;;;5098669;28;20455;-78
2024/02/06 07:51:26;;;;;;;0.30;0.20;;;13.10;99.90;;;;;;5100120;28;20179;-76
2024/02/06 07:53:53;;;;;;;0.30;0.20;;;13.40;99.90;;;;;;5097961;28;20218;-77
2024/02/06 07:56:19;;;;;;;0.40;0.30;;;13.70;99.90;;;;;;5101383;28;20775;-77
2024/02/06 07:58:46;;;;;;;2.10;2.00;;;14.10;99.90;;;;;;5105894;28;20735;-78
2024/02/06 08:01:13;;;;;;;0.30;0.20;;;14.70;99.90;;;;;;5104176;28;20213;-77
2024/02/06 08:03:38;;;;;;;1.07;1.07;;;15.30;99.90;;;;;;5102993;28;20440;-79
2024/02/06 08:06:05;;;;;;;0.50;0.50;;;16.00;99.90;;;;;;5097293;28;20544;-77
2024/02/06 08:08:31;;;;;;;0.40;0.40;;;16.60;99.90;;;;;;5098464;28;20693;-78
2024/02/06 08:10:57;;;;;;;0.40;0.30;;;17.20;99.90;;;;;;5109306;27;20481;-78
2024/02/06 08:13:22;;;;;;;0.40;0.30;;;17.90;99.90;;;;;;5096631;28;20213;-77
2024/02/06 08:15:48;;;;;;;1.43;1.33;;;18.60;99.90;;;;;;5097013;28;20182;-78
2024/02/06 08:18:14;;;;;;;1.17;0.57;;;19.20;99.90;;;;;;5093232;28;20209;-77
2024/02/06 08:20:40;;;;;;;0.40;0.30;;;19.70;99.90;;;;;;5089347;28;20213;-78
2024/02/06 08:23:08;;;;;;;1.23;1.23;;;20.00;99.90;;;;;;5096299;28;20463;-77
2024/02/06 08:25:34;;;;;;;0.70;0.70;;;20.40;99.90;;;;;;5091404;28;20726;-79
2024/02/06 08:28:00;;;;;;;2.07;1.90;;;20.60;99.90;;;;;;5100989;28;20507;-79
2024/02/06 08:30:26;;;;;;;0.40;0.30;;;21.00;99.80;;;;;;5095830;28;20424;-78
2024/02/06 08:32:51;;;;;;;0.40;0.20;;;21.10;99.20;;;;;;5095083;28;20251;-78
2024/02/06 08:35:17;;;;;;;0.90;0.60;;;21.10;98.30;;;;;;5099938;28;20195;-79
2024/02/06 08:37:43;;;;;;;0.53;0.53;;;21.20;98.40;;;;;;5100095;28;20239;-77
2024/02/06 08:40:10;;;;;;;1.70;0.70;;;21.40;97.90;;;;;;5096850;27;21023;-79
2024/02/06 08:42:37;;;;;;;0.43;0.43;;;21.40;97.10;;;;;;5098538;27;20211;-79
2024/02/06 08:45:04;;;;;;;1.07;1.07;;;21.40;97.20;;;;;;5091315;27;20779;-77
2024/02/06 08:47:30;;;;;;;0.83;0.83;;;21.60;96.90;;;;;;5089658;27;20782;-79
2024/02/06 08:49:55;;;;;;;0.40;0.20;;;21.80;96.50;;;;;;5090752;27;20565;-79
2024/02/06 08:52:21;;;;;;;0.40;0.30;;;22.20;95.80;;;;;;5094278;28;20174;-78
2024/02/06 08:54:47;;;;;;;0.60;0.60;;;22.50;95.50;;;;;;5098942;28;20211;-77
2024/02/06 08:57:13;;;;;;;0.50;0.47;;;22.80;94.70;;;;;;5118185;27;20456;-79
2024/02/06 08:59:39;;;;;;;0.30;0.20;;;22.70;94.20;;;;;;5110967;27;20211;-78
2024/02/06 09:02:05;;;;;;;0.40;0.20;;;22.30;94.00;;;;;;5100820;28;20459;-77
2024/02/06 09:04:31;;;;;;;0.40;0.40;;;21.90;94.40;;;;;;5099590;27;20414;-77
2024/02/06 09:06:58;;;;;;;0.40;0.40;;;21.60;95.00;;;;;;5102287;28;20969;-79
2024/02/06 09:09:24;;;;;;;1.90;1.03;;;21.40;94.70;;;;;;5102092;28;20479;-78
2024/02/06 09:11:51;;;;;;;0.70;0.70;;;21.20;95.10;;;;;;5102252;28;20431;-78
2024/02/06 09:14:16;;;;;;;3.60;0.80;;;20.90;95.10;;;;;;5098162;28;20294;-78
2024/02/06 09:16:42;;;;;;;0.40;0.20;;;20.40;95.50;;;;;;5102289;28;20530;-77
2024/02/06 09:19:10;;;;;;;0.40;0.20;;;20.00;96.00;;;;;;5098305;28;20215;-79
2024/02/06 09:21:36;;;;;;;0.40;0.30;;;19.70;96.40;;;;;;5096746;28;20659;-78
2024/02/06 09:24:02;;;;;;;0.40;0.30;;;19.70;96.90;;;;;;5093327;28;20632;-79
2024/02/06 09:26:27;;;;;;;0.70;0.50;;;20.20;96.90;;;;;;5097158;28;20471;-77
2024/02/06 09:28:53;;;;;;;0.30;0.30;;;20.80;96.60;;;;;;5096857;28;20458;-79
2024/02/06 09:31:20;;;;;;;0.40;0.20;;;21.30;96.00;;;;;;5091728;28;20379;-79
2024/02/06 09:33:46;;;;;;;0.40;0.27;;;21.70;95.20;;;;;;5088271;28;20196;-77
2024/02/06 09:36:11;;;;;;;0.40;0.20;;;22.50;94.00;;;;;;5107943;27;20846;-79
2024/02/06 09:38:37;;;;;;;0.60;0.60;;;23.10;93.50;;;;;;5119685;27;20204;-79
2024/02/06 09:41:05;;;;;;;0.47;0.47;;;23.70;93.00;;;;;;5108337;27;20182;-77
2024/02/06 09:43:32;;;;;;;0.40;0.20;;;24.20;92.20;;;;;;5092810;27;20813;-78
2024/02/06 09:45:59;;;;;;;0.37;0.30;;;24.60;91.50;;;;;;5101443;28;20840;-78
2024/02/06 09:48:25;;;;;;;0.30;0.30;;;24.70;91.40;;;;;;5102689;28;20444;-79
2024/02/06 09:50:54;;;;;;;0.30;0.20;;;24.70;90.60;;;;;;5108545;27;20435;-78
2024/02/06 09:53:20;;;;;;;0.40;0.30;;;24.30;90.30;;;;;;5094555;28;20206;-78
2024/02/06 09:55:49;;;;;;;0.30;0.20;;;23.90;90.70;;;;;;5101035;28;20901;-78
2024/02/06 09:58:16;;;;;;;0.30;0.20;;;23.50;90.90;;;;;;5110186;27;20238;-77
2024/02/06 10:00:45;;;;;;;0.40;0.30;;;22.80;91.40;;;;;;5089682;28;20946;-79
2024/02/06 10:03:21;;;;;;;0.40;0.20;;;22.20;91.90;;;;;;5098494;28;20484;-78
2024/02/06 10:05:50;;;;;;;0.40;0.20;;;21.90;92.20;;;;;;5111683;27;20477;-78
2024/02/06 10:08:17;;;;;;;0.30;0.20;;;21.70;92.30;;;;;;5085421;28;20767;-77
2024/02/06 10:10:46;;;;;;;0.50;0.40;;;21.60;92.60;;;;;;5100507;27;21016;-78
2024/02/06 10:13:13;;;;;;;0.80;0.67;;;21.50;92.90;;;;;;5096092;28;20474;-77
2024/02/06 10:15:39;;;;;;;0.30;0.20;;;21.30;93.20;;;;;;5097385;28;20465;-78
2024/02/06 10:18:04;;;;;;;0.47;0.47;;;21.00;93.40;;;;;;5093838;28;20596;-77
2024/02/06 10:20:44;;;;;;;0.30;0.20;;;20.60;93.70;;;;;;5092598;28;20435;-77
2024/02/06 10:23:18;;;;;;;0.30;0.20;;;20.20;94.60;;;;;;5091057;28;20376;-77
2024/02/06 10:25:44;;;;;;;0.30;0.20;;;19.90;95.10;;;;;;5096582;28;20801;-78
2024/02/06 10:28:18;;;;;;;0.87;0.87;;;19.70;95.40;;;;;;5102625;27;20907;-76
2024/02/06 10:30:44;;;;;;;0.30;0.20;;;19.50;95.70;;;;;;5096785;28;20537;-77
2024/02/06 10:33:16;;;;;;;0.73;0.67;;;19.30;96.20;;;;;;5093437;28;21034;-77
2024/02/06 10:35:43;;;;;;;0.30;0.20;;;19.00;96.50;;;;;;5094519;28;20176;-78
2024/02/06 10:38:18;;;;;;;0.30;0.20;;;18.90;97.10;;;;;;5095215;28;21127;-77
2024/02/06 10:40:45;;;;;;;0.40;0.40;;;18.80;97.30;;;;;;5083495;28;20603;-79
2024/02/06 10:43:12;;;;;;;0.50;0.50;;;18.80;97.60;;;;;;5087189;28;20471;-77
2024/02/06 10:45:38;;;;;;;0.37;0.20;;;18.70;97.60;;;;;;5097283;28;20463;-76
2024/02/06 10:48:05;;;;;;;0.30;0.20;;;18.60;98.10;;;;;;5095629;28;21079;-78
2024/02/06 10:50:31;;;;;;;8.90;1.07;;;18.60;98.40;;;;;;5092252;28;20465;-77
2024/02/06 10:52:58;;;;;;;0.57;0.57;;;18.70;98.50;;;;;;5098911;28;20443;-78
2024/02/06 10:55:24;;;;;;;1.07;1.07;;;18.90;97.90;;;;;;5105492;28;20417;-78
2024/02/06 10:58:04;;;;;;;0.40;0.30;;;19.00;97.90;;;;;;5099115;28;20472;-77
2024/02/06 11:00:33;;;;;;;0.53;0.50;;;19.20;97.80;;;;;;5099317;28;20430;-77
2024/02/06 11:03:01;;;;;;;0.30;0.30;;;19.20;97.30;;;;;;5099661;28;20448;-77
2024/02/06 11:05:43;;;;;;;0.40;0.37;;;19.10;97.60;;;;;;5102588;28;20560;-78
2024/02/06 11:08:19;;;;;;;0.30;0.20;;;18.90;96.90;;;;;;5099972;28;20451;-78
2024/02/06 11:10:56;;;;;;;0.40;0.30;;;18.80;97.40;;;;;;5099557;28;20554;-77
2024/02/06 11:13:33;;;;;;;0.30;0.30;;;18.80;97.40;;;;;;5099730;28;20546;-77
2024/02/06 11:16:05;;;;;;;0.30;0.20;;;18.70;97.30;;;;;;5098780;28;20431;-78
2024/02/06 11:18:40;;;;;;;0.40;0.40;;;18.70;97.30;;;;;;5099477;28;20705;-78
2024/02/06 11:21:09;;;;;;;0.50;0.50;;;18.70;97.20;;;;;;5088888;28;20519;-78
2024/02/06 11:23:36;;;;;;;0.30;0.30;;;18.70;97.50;;;;;;5097347;28;20604;-77
2024/02/06 11:26:02;;;;;;;0.83;0.53;;;18.80;97.80;;;;;;5111531;27;20996;-78
2024/02/06 11:28:29;;;;;;;0.30;0.30;;;18.90;97.60;;;;;;5100890;28;20463;-78
2024/02/06 11:30:59;;;;;;;0.30;0.20;;;18.90;97.70;;;;;;5106339;27;20467;-78
2024/02/06 11:33:31;;;;;;;0.30;0.20;;;18.80;97.90;;;;;;5098120;28;20777;-78
2024/02/06 11:36:10;;;;;;;0.93;0.50;;;18.90;98.20;;;;;;5096416;28;20416;-77
2024/02/06 11:38:36;;;;;;;0.30;0.20;;;18.80;98.10;;;;;;5119980;27;20446;-77
2024/02/06 11:41:11;;;;;;;0.60;0.60;;;18.80;98.00;;;;;;5104271;27;20436;-77
2024/02/06 11:43:37;;;;;;;0.40;0.30;;;18.90;98.40;;;;;;5098138;28;20286;-77
2024/02/06 11:46:03;;;;;;;0.30;0.20;;;19.00;98.10;;;;;;5097358;28;21095;-77
2024/02/06 11:48:29;;;;;;;0.90;0.87;;;19.00;98.20;;;;;;5094732;28;20211;-77
2024/02/06 11:50:55;;;;;;;0.40;0.40;;;19.10;98.00;;;;;;5100699;28;20506;-77
2024/02/06 11:53:26;;;;;;;0.30;0.30;;;19.00;97.70;;;;;;5093364;28;21566;-76
2024/02/06 11:55:59;;;;;;;0.30;0.20;;;19.10;98.00;;;;;;5087511;28;20729;-78
2024/02/06 11:58:26;;;;;;;0.30;0.20;;;19.20;97.60;;;;;;5088095;28;20447;-76
2024/02/06 12:00:52;;;;;;;0.30;0.30;;;19.20;97.40;;;;;;5087414;28;20529;-77
2024/02/06 12:03:18;;;;;;;0.30;0.20;;;19.20;97.30;;;;;;5087240;27;20445;-78
2024/02/06 12:05:44;;;;;;;0.30;0.20;;;19.20;97.60;;;;;;5084924;27;20855;-78
2024/02/06 12:08:16;;;;;;;0.30;0.20;;;19.20;97.30;;;;;;5082712;28;20495;-77
2024/02/06 12:10:42;;;;;;;0.30;0.20;;;19.20;97.60;;;;;;5083303;28;20563;-77
2024/02/06 12:13:10;;;;;;;0.30;0.20;;;19.30;97.40;;;;;;5090677;28;20451;-77
2024/02/06 12:15:37;;;;;;;0.30;0.20;;;19.30;97.20;;;;;;5092548;28;20845;-77
2024/02/06 12:18:07;;;;;;;0.30;0.20;;;19.20;97.20;;;;;;5091998;28;20666;-77
2024/02/06 12:20:36;;;;;;;0.30;0.20;;;19.20;97.50;;;;;;5090339;28;20436;-77
2024/02/06 12:23:04;;;;;;;0.30;0.20;;;19.20;97.30;;;;;;5086068;28;20439;-77
2024/02/06 12:25:31;;;;;;;0.30;0.20;;;19.20;97.60;;;;;;5082870;28;20690;-77
2024/02/06 12:28:01;;;;;;;1.17;0.97;;;19.20;97.00;;;;;;5091764;28;20490;-76
2024/02/06 12:30:31;;;;;;;0.30;0.20;;;19.10;97.30;;;;;;5092087;28;20420;-77
2024/02/06 12:33:01;;;;;;;0.57;0.57;;;19.20;97.30;;;;;;5090449;28;20427;-77
2024/02/06 12:35:31;;;;;;;1.00;0.63;;;19.30;97.20;;;;;;5098069;28;20515;-78
2024/02/06 12:37:58;;;;;;;0.30;0.20;;;19.30;97.00;;;;;;5100741;28;20452;-78
2024/02/06 12:40:32;;;;;;;0.40;0.40;;;19.30;97.00;;;;;;5101534;28;20873;-78
2024/02/06 12:43:10;;;;;;;0.30;0.30;;;19.30;96.80;;;;;;5100768;28;20543;-77
2024/02/06 12:45:37;;;;;;;0.30;0.20;;;19.30;96.80;;;;;;5099565;28;20529;-78
2024/02/06 12:48:04;;;;;;;0.47;0.47;;;19.30;97.20;;;;;;5096932;28;20439;-78
2024/02/06 12:50:29;;;;;;;0.87;0.87;;;19.30;97.20;;;;;;5092467;28;20619;-77